createdAt,value
2023-04-04T00:02:33.862Z,97751.66
2023-04-04T00:07:54.479Z,97744.28
2023-04-04T00:13:15.442Z,97735.56
2023-04-04T00:18:36.303Z,97721.94
2023-04-04T00:23:57.723Z,97724.25
2023-04-04T00:29:18.632Z,97720.50
2023-04-04T00:34:39.207Z,97718.81
2023-04-04T00:40:00.036Z,97714.56
2023-04-04T00:45:20.789Z,97710.28
2023-04-04T00:50:41.795Z,97707.19
2023-04-04T00:56:02.956Z,97699.81
2023-04-04T01:01:25.861Z,97700.44
2023-04-04T01:06:47.005Z,97695.03
2023-04-04T01:12:07.702Z,97697.56
2023-04-04T01:17:29.711Z,97691.41
2023-04-04T01:22:51.920Z,97694.59
2023-04-04T01:28:13.489Z,97690.66
2023-04-04T01:33:43.391Z,97689.56
2023-04-04T01:39:18.794Z,97685.56
2023-04-04T01:44:39.900Z,97682.88
2023-04-04T01:50:00.769Z,97678.31
2023-04-04T01:55:21.901Z,97683.22
2023-04-04T02:00:42.802Z,97670.84
2023-04-04T02:06:03.947Z,97671.72
2023-04-04T02:11:25.143Z,97669.72
2023-04-04T02:16:46.240Z,97670.81
2023-04-04T02:22:07.155Z,97669.13
2023-04-04T02:27:27.828Z,97662.38
2023-04-04T02:32:49.037Z,97669.19
2023-04-04T02:38:12.872Z,97658.78
2023-04-04T02:43:39.564Z,97663.91
2023-04-04T02:49:03.746Z,97662.69
2023-04-04T02:54:25.784Z,97661.75
2023-04-04T02:59:46.987Z,97659.59
2023-04-04T03:05:08.093Z,97657.19
2023-04-04T03:10:32.777Z,97657.47
2023-04-04T03:16:06.769Z,97660.00
2023-04-04T03:21:47.614Z,97652.19
2023-04-04T03:27:08.463Z,97652.94
2023-04-04T03:32:29.161Z,97651.19
2023-04-04T03:37:49.852Z,97654.94
2023-04-04T03:43:10.576Z,97652.59
2023-04-04T03:48:31.952Z,97652.84
2023-04-04T03:53:52.535Z,97658.00
2023-04-04T03:59:13.457Z,97657.94
2023-04-04T04:04:34.156Z,97661.38
2023-04-04T04:09:55.274Z,97666.13
2023-04-04T04:15:16.048Z,97667.69
2023-04-04T04:20:38.627Z,97665.44
2023-04-04T04:25:59.708Z,97670.38
2023-04-04T04:31:22.420Z,97664.94
2023-04-04T04:36:45.518Z,97659.69
2023-04-04T04:42:19.763Z,97664.56
2023-04-04T04:47:46.271Z,97659.09
2023-04-04T04:53:10.782Z,97665.72
2023-04-04T04:58:32.528Z,97657.22
2023-04-04T05:03:55.081Z,97659.63
2023-04-04T05:09:22.811Z,97665.94
2023-04-04T05:14:44.804Z,97671.91
2023-04-04T05:20:07.744Z,97674.66
2023-04-04T05:25:31.191Z,97685.63
2023-04-04T05:30:53.623Z,97689.88
2023-04-04T05:36:18.678Z,97680.00
2023-04-04T05:41:47.223Z,97681.50
2023-04-04T05:47:11.152Z,97680.84
2023-04-04T05:52:36.594Z,97685.03
2023-04-04T05:57:58.622Z,97688.00
2023-04-04T06:03:33.892Z,97692.19
2023-04-04T06:08:56.034Z,97694.41
2023-04-04T06:14:16.657Z,97694.91
2023-04-04T06:19:39.359Z,97688.69
2023-04-04T06:24:59.976Z,97698.03
2023-04-04T06:30:21.857Z,97697.06
2023-04-04T06:35:45.881Z,97697.81
2023-04-04T06:41:08.300Z,97702.88
2023-04-04T06:46:31.478Z,97699.41
2023-04-04T06:51:52.700Z,97698.41
2023-04-04T06:57:13.726Z,97698.34
2023-04-04T07:02:35.099Z,97698.63
2023-04-04T07:07:57.038Z,97699.94
2023-04-04T07:13:17.893Z,97690.91
2023-04-04T07:18:38.634Z,97691.75
2023-04-04T07:24:00.229Z,97686.09
2023-04-04T07:29:24.079Z,97673.88
2023-04-04T07:34:45.706Z,97688.22
2023-04-04T07:40:08.783Z,97683.44
2023-04-04T07:45:29.993Z,97683.72
2023-04-04T07:50:50.633Z,97680.19
2023-04-04T07:56:11.373Z,97675.53
2023-04-04T08:01:32.158Z,97660.13
2023-04-04T08:06:53.215Z,97672.53
2023-04-04T08:12:13.999Z,97670.44
2023-04-04T08:17:34.823Z,97665.50
2023-04-04T08:22:55.436Z,97672.00
2023-04-04T08:28:16.174Z,97664.28
2023-04-04T08:33:47.251Z,97668.66
2023-04-04T08:39:08.802Z,97661.63
2023-04-04T08:44:30.753Z,97660.81
2023-04-04T08:49:53.295Z,97659.13
2023-04-04T08:55:15.398Z,97655.50
2023-04-04T09:00:37.111Z,97659.88
2023-04-04T09:05:57.986Z,97651.81
2023-04-04T09:11:21.204Z,97650.81
2023-04-04T09:16:42.454Z,97633.38
2023-04-04T09:22:03.099Z,97633.97
2023-04-04T09:27:24.097Z,97639.47
2023-04-04T09:32:44.909Z,97625.56
2023-04-04T09:38:08.981Z,97632.38
2023-04-04T09:43:31.179Z,97639.56
2023-04-04T09:48:52.183Z,97635.53
2023-04-04T09:54:28.911Z,97631.69
2023-04-04T09:59:51.439Z,97643.25
2023-04-04T10:05:12.610Z,97653.09
2023-04-04T10:10:34.391Z,97650.38
2023-04-04T10:16:00.701Z,97631.97
2023-04-04T10:21:22.577Z,97619.41
2023-04-04T10:26:43.330Z,97624.72
2023-04-04T10:32:12.574Z,97631.28
2023-04-04T10:37:43.373Z,97624.47
2023-04-04T10:43:05.332Z,97612.63
2023-04-04T10:48:26.935Z,97600.84
2023-04-04T10:53:48.449Z,97585.16
2023-04-04T10:59:13.946Z,97594.66
2023-04-04T11:04:42.082Z,97598.91
2023-04-04T11:10:14.861Z,97584.34
2023-04-04T11:15:58.498Z,97586.56
2023-04-04T11:21:24.131Z,97584.88
2023-04-04T11:26:46.158Z,97578.16
2023-04-04T11:32:33.417Z,97575.84
2023-04-04T11:37:54.161Z,97571.50
2023-04-04T11:43:16.726Z,97585.69
2023-04-04T11:48:38.891Z,97580.03
2023-04-04T11:53:59.825Z,97579.34
2023-04-04T11:59:22.733Z,97573.78
2023-04-04T12:04:46.122Z,97557.25
2023-04-04T12:10:09.069Z,97565.66
2023-04-04T12:15:30.083Z,97569.69
2023-04-04T12:20:52.186Z,97561.19
2023-04-04T12:26:13.456Z,97545.78
2023-04-04T12:31:34.548Z,97560.91
2023-04-04T12:36:59.340Z,97551.13
2023-04-04T12:42:25.121Z,97544.47
2023-04-04T12:47:55.951Z,97546.72
2023-04-04T12:59:04.903Z,97530.63
2023-04-04T13:04:25.684Z,97535.13
2023-04-04T13:09:58.518Z,97534.88
2023-04-04T13:15:19.759Z,97517.63
2023-04-04T13:20:40.690Z,97529.97
2023-04-04T13:26:01.442Z,97519.09
2023-04-04T13:31:22.303Z,97494.19
2023-04-04T13:36:44.404Z,97500.41
2023-04-04T13:42:05.028Z,97502.47
2023-04-04T13:47:27.574Z,97521.56
2023-04-04T13:52:48.470Z,97512.72
2023-04-04T13:58:09.195Z,97506.72
2023-04-04T14:03:31.127Z,97512.88
2023-04-04T14:08:51.865Z,97510.38
2023-04-04T14:14:12.461Z,97515.84
2023-04-04T14:19:33.068Z,97506.34
2023-04-04T14:24:53.696Z,97521.94
2023-04-04T14:30:14.772Z,97514.78
2023-04-04T14:35:36.588Z,97504.13
2023-04-04T14:40:57.532Z,97508.06
2023-04-04T14:46:19.851Z,97498.41
2023-04-04T14:51:41.012Z,97509.66
2023-04-04T14:57:02.305Z,97501.91
2023-04-04T15:02:23.279Z,97505.84
2023-04-04T15:07:45.357Z,97513.88
2023-04-04T15:13:06.997Z,97507.34
2023-04-04T15:18:28.387Z,97502.72
2023-04-04T15:23:49.161Z,97505.50
2023-04-04T15:29:09.894Z,97501.56
2023-04-04T15:34:30.713Z,97496.50
2023-04-04T15:39:53.644Z,97495.13
2023-04-04T15:45:16.163Z,97498.06
2023-04-04T15:50:36.886Z,97492.19
2023-04-04T15:55:58.124Z,97489.91
2023-04-04T16:01:18.894Z,97486.97
2023-04-04T16:06:39.567Z,97491.91
2023-04-04T16:12:02.309Z,97488.72
2023-04-04T16:17:23.241Z,97483.75
2023-04-04T16:22:44.132Z,97485.38
2023-04-04T16:28:04.985Z,97489.94
2023-04-04T16:33:25.739Z,97484.78
2023-04-04T16:38:46.417Z,97484.19
2023-04-04T16:44:07.152Z,97485.25
2023-04-04T16:49:27.858Z,97484.13
2023-04-04T16:54:48.542Z,97478.97
2023-04-04T17:00:12.596Z,97492.81
2023-04-04T17:05:33.428Z,97477.00
2023-04-04T17:10:54.322Z,97480.63
2023-04-04T17:16:15.116Z,97488.91
2023-04-04T17:21:36.258Z,97491.53
2023-04-04T17:26:58.385Z,97491.47
2023-04-04T17:32:19.504Z,97487.63
2023-04-04T17:37:40.967Z,97489.81
2023-04-04T17:43:02.023Z,97490.00
2023-04-04T17:48:26.786Z,97497.38
2023-04-04T17:53:47.884Z,97503.56
2023-04-04T17:59:08.800Z,97508.94
2023-04-04T18:04:29.738Z,97508.72
2023-04-04T18:09:50.848Z,97515.53
2023-04-04T18:15:12.408Z,97511.44
2023-04-04T18:20:42.562Z,97513.19
2023-04-04T18:26:03.533Z,97527.19
2023-04-04T18:31:24.272Z,97520.66
2023-04-04T18:36:46.276Z,97538.00
2023-04-04T18:42:10.588Z,97529.38
2023-04-04T18:47:31.654Z,97545.19
2023-04-04T18:52:52.676Z,97545.53
2023-04-04T18:58:13.462Z,97551.53
2023-04-04T19:03:41.977Z,97551.09
2023-04-04T19:09:04.332Z,97536.34
2023-04-04T19:14:26.056Z,97541.53
2023-04-04T19:19:47.469Z,97537.84
2023-04-04T19:25:09.038Z,97539.09
2023-04-04T19:30:47.422Z,97538.47
2023-04-04T19:36:11.237Z,97540.72
2023-04-04T19:41:39.971Z,97538.97
2023-04-04T19:47:01.174Z,97538.19
2023-04-04T19:52:23.979Z,97544.44
2023-04-04T19:57:44.747Z,97545.69
2023-04-04T20:03:08.641Z,97545.88
2023-04-04T20:08:36.590Z,97541.00
2023-04-04T20:13:59.439Z,97547.28
2023-04-04T20:19:20.844Z,97547.56
2023-04-04T20:24:45.042Z,97546.63
2023-04-04T20:30:11.671Z,97545.63
2023-04-04T20:35:32.623Z,97546.31
2023-04-04T20:40:54.275Z,97548.47
2023-04-04T20:46:15.114Z,97545.50
2023-04-04T20:51:37.833Z,97546.16
2023-04-04T20:56:58.483Z,97549.22
2023-04-04T21:02:23.503Z,97548.94
2023-04-04T21:07:44.134Z,97551.00
2023-04-04T21:13:06.010Z,97556.72
2023-04-04T21:18:37.166Z,97552.13
2023-04-04T21:24:01.663Z,97559.22
2023-04-04T21:29:24.214Z,97559.63
2023-04-04T21:34:44.870Z,97557.97
2023-04-04T21:40:08.670Z,97549.69
2023-04-04T21:45:29.265Z,97553.78
2023-04-04T21:50:50.702Z,97545.09
2023-04-04T21:56:12.354Z,97552.59
2023-04-04T22:01:33.732Z,97552.19
2023-04-04T22:06:54.696Z,97544.75
2023-04-04T22:12:15.299Z,97542.16
2023-04-04T22:17:36.332Z,97546.25
2023-04-04T22:22:58.172Z,97542.66
2023-04-04T22:28:24.803Z,97540.84
2023-04-04T22:33:45.636Z,97543.88
2023-04-04T22:39:06.357Z,97546.84
2023-04-04T22:44:27.140Z,97546.84
2023-04-04T22:49:51.041Z,97542.41
2023-04-04T22:55:18.041Z,97531.78
2023-04-04T23:00:39.382Z,97528.16
2023-04-04T23:06:00.542Z,97524.50
2023-04-04T23:11:22.130Z,97516.31
2023-04-04T23:16:43.005Z,97516.31
2023-04-04T23:22:03.783Z,97515.50
2023-04-04T23:27:24.588Z,97512.78
2023-04-04T23:32:45.340Z,97513.28
2023-04-04T23:38:06.015Z,97509.06
2023-04-04T23:43:26.600Z,97508.22
2023-04-04T23:48:47.409Z,97507.88
2023-04-04T23:54:09.688Z,97509.53
2023-04-04T23:59:30.277Z,97511.06
